Opal Express — V7KB8 — position and weather

sailwx.info

Track history (hours):
 
Tides and Currents Weather Stations Pressure Air Temp Water Temp Dewpoint Dewpoint Depression Visibility Wind Speed Wind Dir Waves Ship Positions

Opal Express

Last reported at 2017-Nov-02 05:20 UTC. Time now 2017-Nov-18 17:39 UTC.
Position N 34°48' E 140°07'.
Warning: this ship's position is 16 days out of date.

Length 179 m; draft 7.8 m.

Type: Tanker. MMSI: 538002500.

Date/timePositionNaut miles runAvg speedWind from/ knotsBaromVisibWave heightAir tempDewpointWater temp
2017-Nov-02 05:20N 34°48' E 140°07'616.1
2017-Nov-02 04:56N 34°46' E 139°59'816.0
2017-Nov-02 04:27N 34°48' E 139°50'715.7
2017-Nov-02 04:00N 34°52' E 139°43'715.0
2017-Nov-02 03:31N 34°59' E 139°40'714.9
2017-Nov-02 03:01N 35°06' E 139°44'611.9
2017-Nov-02 02:30N 35°12' E 139°46'611.6
2017-Nov-02 02:00N 35°17' E 139°44'612.5
2017-Nov-02 01:30N 35°23' E 139°43'713.5
2017-Nov-02 01:00N 35°28' E 139°49'713.6
2017-Nov-02 00:30N 35°32' E 139°56'5 0.1
2017-Oct-31 05:06N 35°30' E 140°01'0 0.1
2017-Oct-31 04:59N 35°30' E 140°01'1 2.0
2017-Oct-31 04:30N 35°31' E 140°01'3 6.3
2017-Oct-31 04:00N 35°33' E 139°58'1 0.9
2017-Oct-31 03:25N 35°33' E 139°57'0 0.0
2017-Oct-31 03:01N 35°33' E 139°57'0 0.1
2017-Oct-31 02:31N 35°33' E 139°57'0 0.0
2017-Oct-31 01:10N 35°33' E 139°57'0 0.0
2017-Oct-31 00:52N 35°33' E 139°57'0 0.0
2017-Oct-31 00:28N 35°33' E 139°57'0 0.0
2017-Oct-31 00:01N 35°33' E 139°57'0 0.0
2017-Oct-30 23:28N 35°33' E 139°57'0 0.0
2017-Oct-30 23:01N 35°33' E 139°57'0 0.1
2017-Oct-30 22:31N 35°33' E 139°57'0 0.1
2017-Oct-30 21:22N 35°33' E 139°57'0 0.1
2017-Oct-30 20:24N 35°33' E 139°57'0 0.0
2017-Oct-30 19:59N 35°33' E 139°57'0 0.0
2017-Oct-30 19:24N 35°33' E 139°57'0 0.0
2017-Oct-30 18:45N 35°33' E 139°57'0 0.2
2017-Oct-30 18:29N 35°33' E 139°57'0 0.1
2017-Oct-30 17:57N 35°33' E 139°57'0 0.1
2017-Oct-30 17:30N 35°33' E 139°57'0 0.0
2017-Oct-30 16:57N 35°33' E 139°57'0 0.0
2017-Oct-30 15:32N 35°33' E 139°57'0 0.0
2017-Oct-30 15:30N 35°33' E 139°57'0 0.0
2017-Oct-30 14:52N 35°33' E 139°57'0 0.0
2017-Oct-30 13:58N 35°33' E 139°57'0 0.0
2017-Oct-30 13:30N 35°33' E 139°57'0 0.1
2017-Oct-30 13:00N 35°33' E 139°57'0 0.1
2017-Oct-30 12:30N 35°33' E 139°57'0 0.0
2017-Oct-30 11:40N 35°33' E 139°57'0 0.3
2017-Oct-30 11:30N 35°33' E 139°57'0 0.0
2017-Oct-30 11:00N 35°33' E 139°57'0 0.0
2017-Oct-30 10:28N 35°33' E 139°57'0 0.0
2017-Oct-30 09:59N 35°33' E 139°57'0 0.0
2017-Oct-30 09:28N 35°33' E 139°57'0 0.0
2017-Oct-30 08:58N 35°33' E 139°57'0 0.0
2017-Oct-30 08:28N 35°33' E 139°57'0 0.0
2017-Oct-30 03:59N 35°33' E 139°57'0 0.0
2017-Oct-30 03:26N 35°33' E 139°57'0 0.0
2017-Oct-30 02:59N 35°33' E 139°57'0 0.0
2017-Oct-30 02:29N 35°33' E 139°57'0 0.0
2017-Oct-30 01:59N 35°33' E 139°57'0 0.0
2017-Oct-29 19:05N 35°33' E 139°57'0 0.1
2017-Oct-29 18:37N 35°33' E 139°57'0 0.1
2017-Oct-29 18:12N 35°33' E 139°57'0 0.2
2017-Oct-29 17:55N 35°33' E 139°57'0 0.1
2017-Oct-29 17:25N 35°33' E 139°57'0 0.0
2017-Oct-29 14:06N 35°33' E 139°57'0 0.1
2017-Oct-29 14:00N 35°33' E 139°57'0 0.0
2017-Oct-29 13:30N 35°33' E 139°57'0 0.0
2017-Oct-29 13:00N 35°33' E 139°57'0 0.0
2017-Oct-29 11:53N 35°33' E 139°57'0 0.0
2017-Oct-29 11:29N 35°33' E 139°57'0 0.0
2017-Oct-29 08:56N 35°33' E 139°57'0 0.1
2017-Oct-29 08:25N 35°33' E 139°57'0 0.0
2017-Oct-29 07:55N 35°33' E 139°57'0 0.0
2017-Oct-28 13:44N 35°33' E 139°57'0 0.0
2017-Oct-28 13:20N 35°33' E 139°57'0 0.0
2017-Oct-28 09:08N 35°33' E 139°57'0 0.0
2017-Oct-28 07:38N 35°33' E 139°57'0 0.0
2017-Oct-28 06:23N 35°33' E 139°57'0 0.3
2017-Oct-28 05:59N 35°33' E 139°57'1 1.5
2017-Oct-28 05:30N 35°32' E 139°56'4 7.9
2017-Oct-28 05:00N 35°30' E 139°53'611.7
2017-Oct-28 04:30N 35°26' E 139°48'611.5
2017-Oct-28 04:00N 35°21' E 139°45'510.5
2017-Oct-28 03:30N 35°16' E 139°47'5 9.6
2017-Oct-28 03:00N 35°11' E 139°46'510.3
2017-Oct-28 02:30N 35°06' E 139°45'713.7
2017-Oct-28 02:00N 34°59' E 139°42'712.6
2017-Oct-28 01:26N 34°52' E 139°44'  
Track history (hours):
 
Tides and Currents Weather Stations Pressure Air Temp Water Temp Dewpoint Dewpoint Depression Visibility Wind Speed Wind Dir Waves Ship Positions

Opal Express

Last reported at 2017-Nov-02 05:20 UTC. Time now 2017-Nov-18 17:39 UTC.
Position N 34°48' E 140°07'.
Warning: this ship's position is 16 days out of date.

Length 179 m; draft 7.8 m.

Type: Tanker. MMSI: 538002500.

Date/timePositionNaut miles runAvg speedWind from/ knotsBaromVisibWave heightAir tempDewpointWater temp
2017-Nov-02 05:20N 34°48' E 140°07'616.1
2017-Nov-02 04:56N 34°46' E 139°59'816.0
2017-Nov-02 04:27N 34°48' E 139°50'715.7
2017-Nov-02 04:00N 34°52' E 139°43'715.0
2017-Nov-02 03:31N 34°59' E 139°40'714.9
2017-Nov-02 03:01N 35°06' E 139°44'611.9
2017-Nov-02 02:30N 35°12' E 139°46'611.6
2017-Nov-02 02:00N 35°17' E 139°44'612.5
2017-Nov-02 01:30N 35°23' E 139°43'713.5
2017-Nov-02 01:00N 35°28' E 139°49'713.6
2017-Nov-02 00:30N 35°32' E 139°56'5 0.1
2017-Oct-31 05:06N 35°30' E 140°01'0 0.1
2017-Oct-31 04:59N 35°30' E 140°01'1 2.0
2017-Oct-31 04:30N 35°31' E 140°01'3 6.3
2017-Oct-31 04:00N 35°33' E 139°58'1 0.9
2017-Oct-31 03:25N 35°33' E 139°57'0 0.0
2017-Oct-31 03:01N 35°33' E 139°57'0 0.1
2017-Oct-31 02:31N 35°33' E 139°57'0 0.0
2017-Oct-31 01:10N 35°33' E 139°57'0 0.0
2017-Oct-31 00:52N 35°33' E 139°57'0 0.0
2017-Oct-31 00:28N 35°33' E 139°57'0 0.0
2017-Oct-31 00:01N 35°33' E 139°57'0 0.0
2017-Oct-30 23:28N 35°33' E 139°57'0 0.0
2017-Oct-30 23:01N 35°33' E 139°57'0 0.1
2017-Oct-30 22:31N 35°33' E 139°57'0 0.1
2017-Oct-30 21:22N 35°33' E 139°57'0 0.1
2017-Oct-30 20:24N 35°33' E 139°57'0 0.0
2017-Oct-30 19:59N 35°33' E 139°57'0 0.0
2017-Oct-30 19:24N 35°33' E 139°57'0 0.0
2017-Oct-30 18:45N 35°33' E 139°57'0 0.2
2017-Oct-30 18:29N 35°33' E 139°57'0 0.1
2017-Oct-30 17:57N 35°33' E 139°57'0 0.1
2017-Oct-30 17:30N 35°33' E 139°57'0 0.0
2017-Oct-30 16:57N 35°33' E 139°57'0 0.0
2017-Oct-30 15:32N 35°33' E 139°57'0 0.0
2017-Oct-30 15:30N 35°33' E 139°57'0 0.0
2017-Oct-30 14:52N 35°33' E 139°57'0 0.0
2017-Oct-30 13:58N 35°33' E 139°57'0 0.0
2017-Oct-30 13:30N 35°33' E 139°57'0 0.1
2017-Oct-30 13:00N 35°33' E 139°57'0 0.1
2017-Oct-30 12:30N 35°33' E 139°57'0 0.0
2017-Oct-30 11:40N 35°33' E 139°57'0 0.3
2017-Oct-30 11:30N 35°33' E 139°57'0 0.0
2017-Oct-30 11:00N 35°33' E 139°57'0 0.0
2017-Oct-30 10:28N 35°33' E 139°57'0 0.0
2017-Oct-30 09:59N 35°33' E 139°57'0 0.0
2017-Oct-30 09:28N 35°33' E 139°57'0 0.0
2017-Oct-30 08:58N 35°33' E 139°57'0 0.0
2017-Oct-30 08:28N 35°33' E 139°57'0 0.0
2017-Oct-30 03:59N 35°33' E 139°57'0 0.0
2017-Oct-30 03:26N 35°33' E 139°57'0 0.0
2017-Oct-30 02:59N 35°33' E 139°57'0 0.0
2017-Oct-30 02:29N 35°33' E 139°57'0 0.0
2017-Oct-30 01:59N 35°33' E 139°57'0 0.0
2017-Oct-29 19:05N 35°33' E 139°57'0 0.1
2017-Oct-29 18:37N 35°33' E 139°57'0 0.1
2017-Oct-29 18:12N 35°33' E 139°57'0 0.2
2017-Oct-29 17:55N 35°33' E 139°57'0 0.1
2017-Oct-29 17:25N 35°33' E 139°57'0 0.0
2017-Oct-29 14:06N 35°33' E 139°57'0 0.1
2017-Oct-29 14:00N 35°33' E 139°57'0 0.0
2017-Oct-29 13:30N 35°33' E 139°57'0 0.0
2017-Oct-29 13:00N 35°33' E 139°57'0 0.0
2017-Oct-29 11:53N 35°33' E 139°57'0 0.0
2017-Oct-29 11:29N 35°33' E 139°57'0 0.0
2017-Oct-29 08:56N 35°33' E 139°57'0 0.1
2017-Oct-29 08:25N 35°33' E 139°57'0 0.0
2017-Oct-29 07:55N 35°33' E 139°57'0 0.0
2017-Oct-28 13:44N 35°33' E 139°57'0 0.0
2017-Oct-28 13:20N 35°33' E 139°57'0 0.0
2017-Oct-28 09:08N 35°33' E 139°57'0 0.0
2017-Oct-28 07:38N 35°33' E 139°57'0 0.0
2017-Oct-28 06:23N 35°33' E 139°57'0 0.3
2017-Oct-28 05:59N 35°33' E 139°57'1 1.5
2017-Oct-28 05:30N 35°32' E 139°56'4 7.9
2017-Oct-28 05:00N 35°30' E 139°53'611.7
2017-Oct-28 04:30N 35°26' E 139°48'611.5
2017-Oct-28 04:00N 35°21' E 139°45'510.5
2017-Oct-28 03:30N 35°16' E 139°47'5 9.6
2017-Oct-28 03:00N 35°11' E 139°46'510.3
2017-Oct-28 02:30N 35°06' E 139°45'713.7
2017-Oct-28 02:00N 34°59' E 139°42'712.6
2017-Oct-28 01:26N 34°52' E 139°44'  

Dump ship's entire track history